createdAt,value
2019-05-22T00:01:29.105Z,12.97
2019-05-22T00:04:15.526Z,12.96
2019-05-22T00:06:50.180Z,12.92
2019-05-22T00:09:24.812Z,12.91
2019-05-22T00:11:56.784Z,12.89
2019-05-22T00:14:28.714Z,12.89
2019-05-22T00:17:02.919Z,12.90
2019-05-22T00:19:35.019Z,12.91
2019-05-22T00:22:13.827Z,12.94
2019-05-22T00:24:47.025Z,12.95
2019-05-22T00:27:20.664Z,12.93
2019-05-22T00:29:56.034Z,12.88
2019-05-22T00:32:29.264Z,12.96
2019-05-22T00:35:01.380Z,12.98
2019-05-22T00:37:37.166Z,12.98
2019-05-22T00:40:09.937Z,12.97
2019-05-22T00:42:45.378Z,13.02
2019-05-22T00:45:20.069Z,13.02
2019-05-22T00:47:52.288Z,13.02
2019-05-22T00:50:29.899Z,13.02
2019-05-22T00:53:23.455Z,13.04
2019-05-22T00:56:02.092Z,13.07
2019-05-22T00:58:36.039Z,13.04
2019-05-22T01:01:45.294Z,13.07
2019-05-22T01:04:20.446Z,13.06
2019-05-22T01:06:54.997Z,13.11
2019-05-22T01:09:32.912Z,13.11
2019-05-22T01:12:07.078Z,13.14
2019-05-22T01:14:42.985Z,13.16
2019-05-22T01:17:14.965Z,13.17
2019-05-22T01:19:49.041Z,13.21
2019-05-22T01:22:23.314Z,13.22
2019-05-22T01:24:56.934Z,13.27
2019-05-22T01:27:30.135Z,13.31
2019-05-22T01:30:03.814Z,13.34
2019-05-22T01:32:45.501Z,13.36
2019-05-22T01:35:19.801Z,13.01
2019-05-22T01:37:52.746Z,13.01
2019-05-22T01:40:41.571Z,12.97
2019-05-22T01:43:17.578Z,12.97
2019-05-22T01:45:55.380Z,12.82
2019-05-22T01:48:33.412Z,12.80
2019-05-22T01:51:07.258Z,12.69
2019-05-22T01:53:42.233Z,12.56
2019-05-22T01:56:16.220Z,12.52
2019-05-22T01:58:50.022Z,12.44
2019-05-22T02:01:24.235Z,12.43
2019-05-22T02:04:00.025Z,12.45
2019-05-22T02:06:34.363Z,12.45
2019-05-22T02:09:24.569Z,12.44
2019-05-22T02:12:02.708Z,12.44
2019-05-22T02:14:35.547Z,12.43
2019-05-22T02:17:09.739Z,12.42
2019-05-22T02:19:42.064Z,12.38
2019-05-22T02:22:15.231Z,12.35
2019-05-22T02:24:51.909Z,12.35
2019-05-22T02:27:26.384Z,12.32
2019-05-22T02:29:59.060Z,12.33
2019-05-22T02:32:34.234Z,12.30
2019-05-22T02:35:08.518Z,12.31
2019-05-22T02:37:42.262Z,12.34
2019-05-22T02:40:25.949Z,12.37
2019-05-22T02:42:59.145Z,12.40
2019-05-22T02:45:32.293Z,12.41
2019-05-22T02:48:05.977Z,12.42
2019-05-22T02:50:39.373Z,12.38
2019-05-22T02:53:13.871Z,12.36
2019-05-22T02:55:47.627Z,12.37
2019-05-22T02:58:20.250Z,12.37
2019-05-22T03:01:01.539Z,12.36
2019-05-22T03:03:34.840Z,12.39
2019-05-22T03:06:12.333Z,12.37
2019-05-22T03:09:24.645Z,12.35
2019-05-22T03:12:01.451Z,12.37
2019-05-22T03:14:35.094Z,12.37
2019-05-22T03:17:13.096Z,12.34
2019-05-22T03:19:46.021Z,12.41
2019-05-22T03:22:31.498Z,12.39
2019-05-22T03:25:09.216Z,12.40
2019-05-22T03:27:44.132Z,12.44
2019-05-22T03:30:31.349Z,12.41
2019-05-22T03:33:04.245Z,12.36
2019-05-22T03:35:46.230Z,12.36
2019-05-22T03:38:20.240Z,12.39
2019-05-22T03:40:53.436Z,12.40
2019-05-22T03:43:28.381Z,12.43
2019-05-22T03:46:02.925Z,12.43
2019-05-22T03:48:37.881Z,12.47
2019-05-22T03:51:13.444Z,12.50
2019-05-22T03:53:48.634Z,12.49
2019-05-22T03:56:22.778Z,12.49
2019-05-22T03:58:55.369Z,12.49
2019-05-22T04:01:26.882Z,12.49
2019-05-22T04:03:59.586Z,12.50
2019-05-22T04:06:33.544Z,12.50
2019-05-22T04:09:19.386Z,12.50
2019-05-22T04:11:52.692Z,12.50
2019-05-22T04:14:34.920Z,12.49
2019-05-22T04:17:10.283Z,12.49
2019-05-22T04:19:49.926Z,12.49
2019-05-22T04:22:19.176Z,12.52
2019-05-22T04:24:51.087Z,12.50
2019-05-22T04:27:23.195Z,12.50
2019-05-22T04:29:57.055Z,12.49
2019-05-22T04:32:37.467Z,12.44
2019-05-22T04:35:13.184Z,12.48
2019-05-22T04:37:46.989Z,12.45
2019-05-22T04:40:58.165Z,12.39
2019-05-22T04:43:34.122Z,12.38
2019-05-22T04:46:08.342Z,12.43
2019-05-22T04:48:40.069Z,12.43
2019-05-22T04:51:32.059Z,12.43
2019-05-22T04:54:03.701Z,12.48
2019-05-22T04:56:36.923Z,12.49
2019-05-22T04:59:09.236Z,12.39
2019-05-22T05:01:41.323Z,12.45
2019-05-22T05:04:14.134Z,12.48
2019-05-22T05:06:46.786Z,12.49
2019-05-22T05:09:18.996Z,12.49
2019-05-22T05:11:51.359Z,12.53
2019-05-22T05:14:23.117Z,12.59
2019-05-22T05:16:55.041Z,12.61
2019-05-22T05:19:26.951Z,12.61
2019-05-22T05:21:58.690Z,12.61
2019-05-22T05:24:30.713Z,12.64
2019-05-22T05:27:03.155Z,12.63
2019-05-22T05:29:35.393Z,12.66
2019-05-22T05:32:08.568Z,12.77
2019-05-22T05:34:49.306Z,12.82
2019-05-22T05:37:24.220Z,12.84
2019-05-22T05:40:42.291Z,12.94
2019-05-22T05:43:17.232Z,13.01
2019-05-22T05:45:50.555Z,12.98
2019-05-22T05:48:26.001Z,12.96
2019-05-22T05:51:40.441Z,12.98
2019-05-22T05:54:18.391Z,13.05
2019-05-22T05:56:52.953Z,13.16
2019-05-22T05:59:27.760Z,13.21
2019-05-22T06:02:00.151Z,13.24
2019-05-22T06:04:37.872Z,13.33
2019-05-22T06:07:34.920Z,13.44
2019-05-22T06:10:44.923Z,13.47
2019-05-22T06:13:17.563Z,13.46
2019-05-22T06:16:46.267Z,13.46
2019-05-22T06:19:19.789Z,13.47
2019-05-22T06:21:52.658Z,13.60
2019-05-22T06:24:28.140Z,13.56
2019-05-22T06:27:09.065Z,13.59
2019-05-22T06:29:59.392Z,13.53
2019-05-22T06:33:07.938Z,13.49
2019-05-22T06:35:40.701Z,13.49
2019-05-22T06:38:24.337Z,13.42
2019-05-22T06:40:56.599Z,13.47
2019-05-22T06:44:43.416Z,13.43
2019-05-22T06:47:22.054Z,13.50
2019-05-22T06:49:57.290Z,13.57
2019-05-22T06:52:29.094Z,13.57
2019-05-22T06:55:00.932Z,13.58
2019-05-22T06:57:33.527Z,13.53
2019-05-22T07:00:25.162Z,13.48
2019-05-22T07:02:56.806Z,13.51
2019-05-22T07:05:30.023Z,13.68
2019-05-22T07:08:03.512Z,13.72
2019-05-22T07:10:36.414Z,13.78
2019-05-22T07:13:10.549Z,13.87
2019-05-22T07:15:46.166Z,13.83
2019-05-22T07:18:22.737Z,13.97
2019-05-22T07:20:57.012Z,14.07
2019-05-22T07:23:32.060Z,13.98
2019-05-22T07:26:06.212Z,14.05
2019-05-22T07:28:38.972Z,14.13
2019-05-22T07:31:11.671Z,13.92
2019-05-22T07:33:43.721Z,13.89
2019-05-22T07:36:17.921Z,13.98
2019-05-22T07:38:49.573Z,14.00
2019-05-22T07:41:22.049Z,13.96
2019-05-22T07:43:54.311Z,13.91
2019-05-22T07:46:30.839Z,13.97
2019-05-22T07:49:01.618Z,14.03
2019-05-22T07:51:48.468Z,14.07
2019-05-22T07:54:08.208Z,13.96
2019-05-22T07:56:40.463Z,14.03
2019-05-22T07:59:12.467Z,14.12
2019-05-22T08:01:44.609Z,14.21
2019-05-22T08:04:19.238Z,14.22
2019-05-22T08:06:51.125Z,14.19
2019-05-22T08:09:24.717Z,14.23
2019-05-22T08:11:58.419Z,14.34
2019-05-22T08:14:32.611Z,14.42
2019-05-22T08:17:06.161Z,14.45
2019-05-22T08:19:38.168Z,14.50
2019-05-22T08:22:10.525Z,14.46
2019-05-22T08:24:43.286Z,14.38
2019-05-22T08:27:16.706Z,14.33
2019-05-22T08:29:48.927Z,14.37
2019-05-22T08:32:23.176Z,14.27
2019-05-22T08:34:55.543Z,14.32
2019-05-22T08:37:31.463Z,14.27
2019-05-22T08:40:04.625Z,14.09
2019-05-22T08:42:37.923Z,14.23
2019-05-22T08:45:10.522Z,14.20
2019-05-22T08:47:42.688Z,14.21
2019-05-22T08:50:16.738Z,14.27
2019-05-22T08:52:50.083Z,14.22
2019-05-22T08:55:22.901Z,14.15
2019-05-22T08:57:54.837Z,14.20
2019-05-22T09:00:28.856Z,14.10
2019-05-22T09:03:02.019Z,14.15
2019-05-22T09:05:34.361Z,14.24
2019-05-22T09:08:06.336Z,14.20
2019-05-22T09:10:38.153Z,14.15
2019-05-22T09:13:10.107Z,14.10
2019-05-22T09:15:43.421Z,14.10
2019-05-22T09:18:15.893Z,14.14
2019-05-22T09:20:49.813Z,14.18
2019-05-22T09:23:22.530Z,14.20
2019-05-22T09:25:55.249Z,14.15
2019-05-22T09:28:27.250Z,14.16
2019-05-22T09:30:59.746Z,14.19
2019-05-22T09:33:32.429Z,14.11
2019-05-22T09:36:04.764Z,14.09
2019-05-22T09:38:36.963Z,14.08
2019-05-22T09:41:09.095Z,14.12
2019-05-22T09:43:41.834Z,14.14
2019-05-22T09:46:13.862Z,14.21
2019-05-22T09:48:46.187Z,14.27
2019-05-22T09:51:18.473Z,14.28
2019-05-22T09:53:53.993Z,14.45
2019-05-22T09:56:26.273Z,14.60
2019-05-22T09:58:58.066Z,14.65
2019-05-22T10:01:30.018Z,14.75
2019-05-22T10:04:02.710Z,14.74
2019-05-22T10:06:34.704Z,14.82
2019-05-22T10:09:09.009Z,14.77
2019-05-22T10:11:41.125Z,14.69
2019-05-22T10:14:13.263Z,14.54
2019-05-22T10:16:46.355Z,14.54
2019-05-22T10:19:18.008Z,14.46
2019-05-22T10:21:50.991Z,14.44
2019-05-22T10:24:23.137Z,14.40
2019-05-22T10:26:55.681Z,14.54
2019-05-22T10:29:31.530Z,14.65
2019-05-22T10:32:01.240Z,14.73
2019-05-22T10:34:33.810Z,14.84
2019-05-22T10:37:08.805Z,14.74
2019-05-22T10:39:41.605Z,14.89
2019-05-22T10:42:14.081Z,14.70
2019-05-22T10:44:46.181Z,14.49
2019-05-22T10:47:19.185Z,14.58
2019-05-22T10:49:51.795Z,14.53
2019-05-22T10:52:24.126Z,14.43
2019-05-22T10:54:56.202Z,14.54
2019-05-22T10:57:29.003Z,14.39
2019-05-22T11:00:01.193Z,14.38
2019-05-22T11:02:33.528Z,14.63
2019-05-22T11:05:10.001Z,14.61
2019-05-22T11:07:43.640Z,14.42
2019-05-22T11:10:17.069Z,14.48
2019-05-22T11:12:48.826Z,14.41
2019-05-22T11:15:21.996Z,14.41
2019-05-22T11:17:54.482Z,14.62
2019-05-22T11:20:26.477Z,14.73
2019-05-22T11:22:59.874Z,14.80
2019-05-22T11:25:32.401Z,14.86
2019-05-22T11:28:04.354Z,14.84
2019-05-22T11:30:36.776Z,14.95
2019-05-22T11:33:09.387Z,15.01
2019-05-22T11:35:41.807Z,15.13
2019-05-22T11:38:14.421Z,15.25
2019-05-22T11:40:47.076Z,15.35
2019-05-22T11:43:19.223Z,15.49
2019-05-22T11:45:51.515Z,15.42
2019-05-22T11:48:23.930Z,15.66
2019-05-22T11:51:00.900Z,15.75
2019-05-22T11:53:31.182Z,15.66
2019-05-22T11:56:03.643Z,15.34
2019-05-22T11:58:36.631Z,15.61
2019-05-22T12:01:08.736Z,15.54
2019-05-22T12:03:42.594Z,15.68
2019-05-22T12:06:16.636Z,15.78
2019-05-22T12:08:50.267Z,15.38
2019-05-22T12:11:22.751Z,15.05
2019-05-22T12:13:55.497Z,14.79
2019-05-22T12:16:28.671Z,14.64
2019-05-22T12:19:00.944Z,14.65
2019-05-22T12:21:32.696Z,14.64
2019-05-22T12:24:04.620Z,14.54
2019-05-22T12:26:37.462Z,14.40
2019-05-22T12:29:09.211Z,14.41
2019-05-22T12:31:41.321Z,14.24
2019-05-22T12:34:13.204Z,14.35
2019-05-22T12:36:45.298Z,14.42
2019-05-22T12:39:18.270Z,14.44
2019-05-22T12:41:50.781Z,14.43
2019-05-22T12:44:22.899Z,14.51
2019-05-22T12:46:54.908Z,14.45
2019-05-22T12:49:29.107Z,14.44
2019-05-22T12:52:01.946Z,14.44
2019-05-22T12:54:45.762Z,14.44
2019-05-22T12:57:07.079Z,14.36
2019-05-22T12:59:39.081Z,14.43
2019-05-22T13:02:11.176Z,14.46
2019-05-22T13:04:43.656Z,14.43
2019-05-22T13:07:16.534Z,14.43
2019-05-22T13:09:48.323Z,14.34
2019-05-22T13:12:20.303Z,14.43
2019-05-22T13:15:08.275Z,14.45
2019-05-22T13:17:28.583Z,14.39
2019-05-22T13:20:03.137Z,14.37
2019-05-22T13:22:38.102Z,14.36
2019-05-22T13:25:12.322Z,14.26
2019-05-22T13:27:45.098Z,14.24
2019-05-22T13:30:19.824Z,14.26
2019-05-22T13:32:52.922Z,14.17
2019-05-22T13:35:25.609Z,14.24
2019-05-22T13:37:58.054Z,14.22
2019-05-22T13:40:30.358Z,14.27
2019-05-22T13:43:04.358Z,14.41
2019-05-22T13:45:36.744Z,14.48
2019-05-22T13:48:09.329Z,14.46
2019-05-22T13:50:41.706Z,14.44
2019-05-22T13:53:15.938Z,14.36
2019-05-22T13:55:48.481Z,14.46
2019-05-22T13:58:21.746Z,14.39
2019-05-22T14:00:53.914Z,14.50
2019-05-22T14:03:26.552Z,14.45
2019-05-22T14:05:58.962Z,14.40
2019-05-22T14:08:30.777Z,14.39
2019-05-22T14:11:03.054Z,14.32
2019-05-22T14:13:35.693Z,14.28
2019-05-22T14:16:07.873Z,14.24
2019-05-22T14:18:39.664Z,14.25
2019-05-22T14:21:11.653Z,14.20
2019-05-22T14:23:43.897Z,14.21
2019-05-22T14:26:16.572Z,14.22
2019-05-22T14:28:49.964Z,14.15
2019-05-22T14:31:22.407Z,13.99
2019-05-22T14:33:54.716Z,14.03
2019-05-22T14:36:27.495Z,13.99
2019-05-22T14:38:59.458Z,14.00
2019-05-22T14:41:31.617Z,13.90
2019-05-22T14:44:03.854Z,14.06
2019-05-22T14:46:35.577Z,14.13
2019-05-22T14:49:07.441Z,14.19
2019-05-22T14:51:40.761Z,14.10
2019-05-22T14:54:12.728Z,14.02
2019-05-22T14:56:46.316Z,14.00
2019-05-22T14:59:19.888Z,14.05
2019-05-22T15:01:52.204Z,14.05
2019-05-22T15:04:25.520Z,14.03
2019-05-22T15:06:57.647Z,14.07
2019-05-22T15:09:30.141Z,14.07
2019-05-22T15:12:02.999Z,14.12
2019-05-22T15:14:34.751Z,14.15
2019-05-22T15:17:07.033Z,14.18
2019-05-22T15:19:38.836Z,14.24
2019-05-22T15:22:10.951Z,14.26
2019-05-22T15:24:42.960Z,14.18
2019-05-22T15:27:16.618Z,14.32
2019-05-22T15:29:48.578Z,14.22
2019-05-22T15:32:20.845Z,14.29
2019-05-22T15:34:52.890Z,14.31
2019-05-22T15:37:27.157Z,14.23
2019-05-22T15:39:59.651Z,14.26
2019-05-22T15:42:38.443Z,14.20
2019-05-22T15:45:14.539Z,14.19
2019-05-22T15:47:55.356Z,14.16
2019-05-22T15:50:26.669Z,14.14
2019-05-22T15:53:01.492Z,14.15
2019-05-22T15:55:35.456Z,14.09
2019-05-22T15:58:08.356Z,14.12
2019-05-22T16:00:42.941Z,14.06
2019-05-22T16:03:16.866Z,14.03
2019-05-22T16:05:49.257Z,14.09
2019-05-22T16:08:20.962Z,14.05
2019-05-22T16:10:53.025Z,14.03
2019-05-22T16:13:27.037Z,14.00
2019-05-22T16:15:59.861Z,14.04
2019-05-22T16:18:34.791Z,13.95
2019-05-22T16:21:10.328Z,13.94
2019-05-22T16:23:43.187Z,13.98
2019-05-22T16:26:16.503Z,13.93
2019-05-22T16:28:50.240Z,13.89
2019-05-22T16:31:22.430Z,13.92
2019-05-22T16:33:54.406Z,13.92
2019-05-22T16:36:27.063Z,13.97
2019-05-22T16:39:00.692Z,13.95
2019-05-22T16:41:36.672Z,13.98
2019-05-22T16:44:09.535Z,13.96
2019-05-22T16:46:42.926Z,13.97
2019-05-22T16:49:15.112Z,13.96
2019-05-22T16:51:51.073Z,13.95
2019-05-22T16:54:23.914Z,14.00
2019-05-22T16:56:56.326Z,13.96
2019-05-22T16:59:30.544Z,13.93
2019-05-22T17:02:03.099Z,13.95
2019-05-22T17:04:34.866Z,13.91
2019-05-22T17:07:08.442Z,14.00
2019-05-22T17:09:43.271Z,13.94
2019-05-22T17:12:17.004Z,13.92
2019-05-22T17:14:51.334Z,13.93
2019-05-22T17:17:23.386Z,13.87
2019-05-22T17:19:55.274Z,13.89
2019-05-22T17:22:28.458Z,13.88
2019-05-22T17:25:00.007Z,13.91
2019-05-22T17:27:32.235Z,13.92
2019-05-22T17:30:06.476Z,14.00
2019-05-22T17:32:38.569Z,13.95
2019-05-22T17:35:12.115Z,13.84
2019-05-22T17:37:46.140Z,13.84
2019-05-22T17:40:20.483Z,13.74
2019-05-22T17:42:54.356Z,13.67
2019-05-22T17:45:28.414Z,13.66
2019-05-22T17:48:03.294Z,13.65
2019-05-22T17:50:35.330Z,13.65
2019-05-22T17:53:07.664Z,13.61
2019-05-22T17:55:40.417Z,13.60
2019-05-22T17:58:13.027Z,13.58
2019-05-22T18:00:47.473Z,13.59
2019-05-22T18:03:19.472Z,13.56
2019-05-22T18:05:51.971Z,13.57
2019-05-22T18:08:24.093Z,13.48
2019-05-22T18:10:56.373Z,13.49
2019-05-22T18:13:28.761Z,13.54
2019-05-22T18:16:04.479Z,13.54
2019-05-22T18:18:34.915Z,13.52
2019-05-22T18:21:10.386Z,13.50
2019-05-22T18:23:40.426Z,13.52
2019-05-22T18:26:12.229Z,13.53
2019-05-22T18:28:46.681Z,13.53
2019-05-22T18:31:19.477Z,13.52
2019-05-22T18:33:52.050Z,13.55
2019-05-22T18:36:23.880Z,13.54
2019-05-22T18:38:56.181Z,13.48
2019-05-22T18:41:29.011Z,13.48
2019-05-22T18:44:01.794Z,13.56
2019-05-22T18:46:33.762Z,13.56
2019-05-22T18:49:05.833Z,13.45
2019-05-22T18:51:38.100Z,13.49
2019-05-22T18:54:09.834Z,13.44
2019-05-22T18:56:43.063Z,13.39
2019-05-22T18:59:14.844Z,13.33
2019-05-22T19:01:46.620Z,13.29
2019-05-22T19:04:18.302Z,13.26
2019-05-22T19:06:51.402Z,13.18
2019-05-22T19:09:23.820Z,13.17
2019-05-22T19:11:55.765Z,13.13
2019-05-22T19:14:28.075Z,13.11
2019-05-22T19:16:59.800Z,13.08
2019-05-22T19:19:31.748Z,13.04
2019-05-22T19:22:03.675Z,12.99
2019-05-22T19:24:35.463Z,12.98
2019-05-22T19:27:07.134Z,12.93
2019-05-22T19:29:38.963Z,12.89
2019-05-22T19:32:10.496Z,12.87
2019-05-22T19:34:42.633Z,12.88
2019-05-22T19:37:14.503Z,12.83
2019-05-22T19:39:46.530Z,12.81
2019-05-22T19:42:18.907Z,12.77
2019-05-22T19:44:50.706Z,12.77
2019-05-22T19:47:23.114Z,12.71
2019-05-22T19:49:57.278Z,12.68
2019-05-22T19:52:41.075Z,12.66
2019-05-22T19:55:06.934Z,12.64
2019-05-22T19:57:37.744Z,12.65
2019-05-22T20:00:12.205Z,12.64
2019-05-22T20:02:44.551Z,12.65
2019-05-22T20:05:17.238Z,12.64
2019-05-22T20:07:49.268Z,12.66
2019-05-22T20:10:21.831Z,12.69
2019-05-22T20:12:53.626Z,12.65
2019-05-22T20:15:26.083Z,12.64
2019-05-22T20:17:58.834Z,12.64
2019-05-22T20:20:30.982Z,12.57
2019-05-22T20:23:03.190Z,12.57
2019-05-22T20:25:35.841Z,12.63
2019-05-22T20:28:09.018Z,12.64
2019-05-22T20:30:41.131Z,12.61
2019-05-22T20:33:13.715Z,12.62
2019-05-22T20:35:45.663Z,12.67
2019-05-22T20:38:18.000Z,12.77
2019-05-22T20:40:49.908Z,12.76
2019-05-22T20:43:23.741Z,12.72
2019-05-22T20:45:58.167Z,12.67
2019-05-22T20:48:30.920Z,12.66
2019-05-22T20:51:03.727Z,12.66
2019-05-22T20:53:52.830Z,12.63
2019-05-22T20:56:12.882Z,12.63
2019-05-22T20:58:48.171Z,12.62
2019-05-22T21:01:21.832Z,12.64
2019-05-22T21:03:53.877Z,12.64
2019-05-22T21:06:27.540Z,12.64
2019-05-22T21:09:00.358Z,12.66
2019-05-22T21:11:34.461Z,12.64
2019-05-22T21:14:07.323Z,12.60
2019-05-22T21:16:41.436Z,12.60
2019-05-22T21:19:13.678Z,12.57
2019-05-22T21:21:46.643Z,12.63
2019-05-22T21:24:18.461Z,12.64
2019-05-22T21:26:50.985Z,12.63
2019-05-22T21:29:24.331Z,12.69
2019-05-22T21:31:57.463Z,12.72
2019-05-22T21:34:30.585Z,12.79
2019-05-22T21:37:02.763Z,12.80
2019-05-22T21:39:35.250Z,12.84
2019-05-22T21:42:07.692Z,12.85
2019-05-22T21:44:42.311Z,12.85
2019-05-22T21:47:14.758Z,12.86
2019-05-22T21:49:47.133Z,12.85
2019-05-22T21:52:19.590Z,12.85
2019-05-22T21:54:52.609Z,12.82
2019-05-22T21:57:25.577Z,12.80
2019-05-22T21:59:59.739Z,12.79
2019-05-22T22:02:38.500Z,12.87
2019-05-22T22:05:11.749Z,12.89
2019-05-22T22:07:43.871Z,12.88
2019-05-22T22:10:16.156Z,12.94
2019-05-22T22:12:49.312Z,12.88
2019-05-22T22:15:22.599Z,12.92
2019-05-22T22:17:55.244Z,12.86
2019-05-22T22:20:27.068Z,12.90
2019-05-22T22:22:59.940Z,12.89
2019-05-22T22:25:32.176Z,12.91
2019-05-22T22:28:04.517Z,12.85
2019-05-22T22:30:43.999Z,12.93
2019-05-22T22:33:16.715Z,12.97
2019-05-22T22:35:50.204Z,13.01
2019-05-22T22:38:25.024Z,13.03
2019-05-22T22:40:57.403Z,13.05
2019-05-22T22:43:32.568Z,13.01
2019-05-22T22:46:23.849Z,13.01
2019-05-22T22:48:58.227Z,13.03
2019-05-22T22:51:30.431Z,13.04
2019-05-22T22:54:04.919Z,13.00
2019-05-22T22:56:37.712Z,13.00
2019-05-22T22:59:10.436Z,13.01
2019-05-22T23:01:46.081Z,13.03
2019-05-22T23:04:19.836Z,13.05
2019-05-22T23:06:51.937Z,13.06
2019-05-22T23:09:25.644Z,13.07
2019-05-22T23:11:58.225Z,13.10
2019-05-22T23:14:31.173Z,13.11
2019-05-22T23:17:05.610Z,13.07
2019-05-22T23:19:38.750Z,13.13
2019-05-22T23:22:18.166Z,13.11
2019-05-22T23:24:52.015Z,13.10
2019-05-22T23:27:24.031Z,13.06
2019-05-22T23:29:56.091Z,13.05
2019-05-22T23:32:28.412Z,13.03
2019-05-22T23:35:02.080Z,13.07
2019-05-22T23:37:35.466Z,13.06
2019-05-22T23:40:11.029Z,13.08
2019-05-22T23:42:44.290Z,13.08
2019-05-22T23:45:22.162Z,13.12
2019-05-22T23:48:24.364Z,13.07
2019-05-22T23:50:56.406Z,13.08
2019-05-22T23:53:29.968Z,13.07
2019-05-22T23:56:04.899Z,13.10
2019-05-22T23:58:51.636Z,13.08
